createdAt,value
2022-07-29T00:01:42.421Z,54.37
2022-07-29T00:04:09.690Z,54.50
2022-07-29T00:06:36.857Z,54.40
2022-07-29T00:09:22.607Z,54.35
2022-07-29T00:11:50.024Z,54.44
2022-07-29T00:14:17.601Z,54.43
2022-07-29T00:16:45.020Z,54.27
2022-07-29T00:19:12.281Z,54.79
2022-07-29T00:21:39.743Z,55.14
2022-07-29T00:24:25.649Z,54.91
2022-07-29T00:26:53.206Z,56.02
2022-07-29T00:29:36.355Z,56.22
2022-07-29T00:32:04.225Z,55.82
2022-07-29T00:34:50.356Z,55.34
2022-07-29T00:37:17.779Z,55.25
2022-07-29T00:39:45.077Z,55.25
2022-07-29T00:42:12.222Z,55.07
2022-07-29T00:44:41.737Z,54.62
2022-07-29T00:47:12.840Z,54.78
2022-07-29T00:49:41.727Z,54.69
2022-07-29T00:52:11.024Z,54.82
2022-07-29T00:54:44.155Z,54.39
2022-07-29T00:57:13.197Z,54.38
2022-07-29T00:59:40.452Z,54.31
2022-07-29T01:02:07.887Z,54.23
2022-07-29T01:04:35.313Z,54.39
2022-07-29T01:07:04.416Z,54.42
2022-07-29T01:09:42.897Z,54.50
2022-07-29T01:12:21.501Z,54.78
2022-07-29T01:14:49.872Z,54.83
2022-07-29T01:17:28.708Z,54.53
2022-07-29T01:20:16.613Z,54.09
2022-07-29T01:23:03.400Z,54.15
2022-07-29T01:25:56.116Z,54.10
2022-07-29T01:29:07.414Z,54.30
2022-07-29T01:31:58.949Z,54.22
2022-07-29T01:34:45.632Z,54.19
2022-07-29T01:37:34.325Z,54.35
2022-07-29T01:40:04.688Z,54.76
2022-07-29T01:42:46.261Z,54.88
2022-07-29T01:45:38.193Z,54.89
2022-07-29T01:48:16.384Z,54.27
2022-07-29T01:51:25.452Z,54.35
2022-07-29T01:54:08.822Z,54.14
2022-07-29T01:56:38.970Z,54.09
2022-07-29T01:59:08.856Z,54.01
2022-07-29T02:01:40.406Z,54.37
2022-07-29T02:04:11.046Z,54.48
2022-07-29T02:06:40.004Z,54.38
2022-07-29T02:09:10.766Z,54.34
2022-07-29T02:11:39.274Z,54.28
2022-07-29T02:14:08.192Z,54.15
2022-07-29T02:16:38.327Z,54.16
2022-07-29T02:19:07.883Z,54.10
2022-07-29T02:21:36.469Z,53.87
2022-07-29T02:24:05.820Z,53.75
2022-07-29T02:26:34.709Z,53.95
2022-07-29T02:29:03.351Z,53.68
2022-07-29T02:31:35.698Z,53.99
2022-07-29T02:34:08.201Z,53.60
2022-07-29T02:36:36.300Z,53.74
2022-07-29T02:39:04.781Z,53.86
2022-07-29T02:41:41.312Z,53.91
2022-07-29T02:44:14.067Z,53.79
2022-07-29T02:46:51.926Z,54.04
2022-07-29T02:49:22.283Z,53.99
2022-07-29T02:51:58.616Z,54.21
2022-07-29T02:54:37.594Z,54.49
2022-07-29T02:57:12.054Z,55.01
2022-07-29T02:59:44.607Z,55.23
2022-07-29T03:02:15.563Z,55.47
2022-07-29T03:04:44.774Z,55.69
2022-07-29T03:07:16.174Z,55.50
2022-07-29T03:09:45.450Z,55.46
2022-07-29T03:12:13.481Z,55.50
2022-07-29T03:14:40.869Z,55.00
2022-07-29T03:17:08.435Z,54.88
2022-07-29T03:19:35.818Z,54.91
2022-07-29T03:22:03.347Z,55.42
2022-07-29T03:24:37.892Z,55.46
2022-07-29T03:27:06.464Z,55.40
2022-07-29T03:29:34.597Z,55.24
2022-07-29T03:32:08.426Z,55.24
2022-07-29T03:34:37.833Z,55.25
2022-07-29T03:37:07.083Z,55.15
2022-07-29T03:39:40.457Z,55.25
2022-07-29T03:42:09.607Z,55.15
2022-07-29T03:44:38.516Z,55.25
2022-07-29T03:47:10.337Z,55.32
2022-07-29T03:49:38.947Z,55.28
2022-07-29T03:52:07.208Z,55.06
2022-07-29T03:54:34.582Z,55.14
2022-07-29T03:57:03.220Z,55.49
2022-07-29T03:59:32.039Z,55.66
2022-07-29T04:02:00.138Z,55.63
2022-07-29T04:04:27.669Z,55.69
2022-07-29T04:06:56.020Z,55.69
2022-07-29T04:09:23.198Z,55.74
2022-07-29T04:12:03.420Z,55.95
2022-07-29T04:14:35.549Z,56.32
2022-07-29T04:17:04.233Z,56.37
2022-07-29T04:19:32.480Z,56.42
2022-07-29T04:22:00.828Z,56.47
2022-07-29T04:24:28.448Z,56.56
2022-07-29T04:26:55.797Z,56.80
2022-07-29T04:29:23.246Z,56.94
2022-07-29T04:31:50.526Z,56.75
2022-07-29T04:34:18.115Z,57.37
2022-07-29T04:36:45.784Z,57.28
2022-07-29T04:39:12.984Z,57.06
2022-07-29T04:41:40.081Z,57.51
2022-07-29T04:44:07.561Z,57.47
2022-07-29T04:46:36.988Z,57.31
2022-07-29T04:49:04.825Z,57.18
2022-07-29T04:51:32.303Z,57.54
2022-07-29T04:53:59.602Z,57.82
2022-07-29T04:56:27.075Z,57.90
2022-07-29T04:58:54.690Z,58.33
2022-07-29T05:01:21.994Z,58.71
2022-07-29T05:03:49.242Z,58.53
2022-07-29T05:06:16.380Z,58.61
2022-07-29T05:08:43.569Z,58.68
2022-07-29T05:11:11.524Z,58.19
2022-07-29T05:13:45.657Z,58.31
2022-07-29T05:16:15.177Z,58.16
2022-07-29T05:18:43.337Z,58.27
2022-07-29T05:21:10.526Z,58.46
2022-07-29T05:23:37.782Z,58.26
2022-07-29T05:26:05.132Z,58.08
2022-07-29T05:28:38.998Z,58.28
2022-07-29T05:31:06.244Z,58.11
2022-07-29T05:33:35.399Z,58.20
2022-07-29T05:36:08.449Z,58.04
2022-07-29T05:38:37.026Z,58.10
2022-07-29T05:41:05.734Z,57.81
2022-07-29T05:43:33.077Z,58.24
2022-07-29T05:46:00.344Z,58.64
2022-07-29T05:48:27.751Z,58.93
2022-07-29T05:50:55.834Z,58.66
2022-07-29T05:53:23.823Z,58.75
2022-07-29T05:55:52.054Z,58.55
2022-07-29T05:58:19.329Z,58.56
2022-07-29T06:00:46.735Z,59.29
2022-07-29T06:03:13.878Z,60.13
2022-07-29T06:05:41.448Z,59.68
2022-07-29T06:08:08.958Z,59.61
2022-07-29T06:10:36.784Z,59.46
2022-07-29T06:13:04.264Z,59.23
2022-07-29T06:15:31.727Z,59.19
2022-07-29T06:18:01.378Z,58.84
2022-07-29T06:20:33.363Z,58.89
2022-07-29T06:23:00.930Z,58.89
2022-07-29T06:25:33.363Z,58.10
2022-07-29T06:28:00.454Z,59.44
2022-07-29T06:30:28.021Z,59.22
2022-07-29T06:32:55.667Z,59.08
2022-07-29T06:35:38.935Z,58.62
2022-07-29T06:38:14.900Z,58.14
2022-07-29T06:41:01.669Z,57.91
2022-07-29T06:43:32.702Z,58.45
2022-07-29T06:46:02.334Z,57.96
2022-07-29T06:48:30.164Z,58.07
2022-07-29T06:50:57.468Z,57.21
2022-07-29T06:53:24.970Z,56.72
2022-07-29T06:55:52.894Z,57.74
2022-07-29T06:58:21.524Z,57.49
2022-07-29T07:00:59.480Z,57.30
2022-07-29T07:03:26.905Z,57.57
2022-07-29T07:05:55.209Z,57.84
2022-07-29T07:08:23.311Z,57.06
2022-07-29T07:10:51.585Z,56.73
2022-07-29T07:13:19.561Z,57.37
2022-07-29T07:15:49.393Z,56.59
2022-07-29T07:18:17.706Z,55.98
2022-07-29T07:20:45.647Z,57.42
2022-07-29T07:23:12.980Z,57.17
2022-07-29T07:25:40.119Z,56.55
2022-07-29T07:28:07.289Z,56.22
2022-07-29T07:30:34.711Z,55.80
2022-07-29T07:33:02.118Z,55.93
2022-07-29T07:35:29.465Z,57.31
2022-07-29T07:37:57.462Z,58.41
2022-07-29T07:40:25.122Z,57.10
2022-07-29T07:42:52.258Z,56.49
2022-07-29T07:45:19.688Z,57.22
2022-07-29T07:47:47.821Z,57.92
2022-07-29T07:50:19.081Z,56.09
2022-07-29T07:52:51.301Z,55.91
2022-07-29T07:55:19.409Z,55.77
2022-07-29T07:57:46.955Z,54.94
2022-07-29T08:00:15.688Z,54.86
2022-07-29T08:02:44.133Z,54.61
2022-07-29T08:05:13.798Z,54.01
2022-07-29T08:07:41.053Z,58.04
2022-07-29T08:10:09.050Z,58.59
2022-07-29T08:12:36.250Z,58.81
2022-07-29T08:15:03.593Z,59.74
2022-07-29T08:17:30.920Z,59.51
2022-07-29T08:20:02.653Z,60.50
2022-07-29T08:22:30.432Z,61.11
2022-07-29T08:24:57.597Z,61.55
2022-07-29T08:27:43.456Z,61.57
2022-07-29T08:30:12.930Z,63.58
2022-07-29T08:32:56.479Z,61.45
2022-07-29T08:35:24.340Z,61.80
2022-07-29T08:37:52.335Z,61.56
2022-07-29T08:40:30.604Z,59.82
2022-07-29T08:43:06.624Z,59.11
2022-07-29T08:45:48.484Z,59.75
2022-07-29T08:48:21.299Z,60.01
2022-07-29T08:50:51.682Z,59.07
2022-07-29T08:53:19.825Z,58.11
2022-07-29T08:55:48.705Z,58.96
2022-07-29T08:58:16.681Z,58.70
2022-07-29T09:00:47.590Z,59.19
2022-07-29T09:03:21.034Z,59.32
2022-07-29T09:05:49.468Z,58.63
2022-07-29T09:08:18.101Z,57.19
2022-07-29T09:10:45.755Z,58.00
2022-07-29T09:13:13.214Z,57.15
2022-07-29T09:15:40.577Z,56.92
2022-07-29T09:18:08.049Z,57.13
2022-07-29T09:21:12.487Z,57.19
2022-07-29T09:23:40.884Z,56.05
2022-07-29T09:26:08.116Z,55.97
2022-07-29T09:28:35.368Z,55.75
2022-07-29T09:31:03.534Z,56.31
2022-07-29T09:33:36.698Z,55.19
2022-07-29T09:36:07.196Z,55.49
2022-07-29T09:38:36.361Z,55.64
2022-07-29T09:41:06.562Z,53.62
2022-07-29T09:43:34.834Z,54.14
2022-07-29T09:46:13.305Z,53.54
2022-07-29T09:48:41.074Z,53.07
2022-07-29T09:51:25.594Z,54.09
2022-07-29T09:53:57.249Z,54.46
2022-07-29T09:56:42.143Z,52.82
2022-07-29T09:59:12.356Z,53.50
2022-07-29T10:01:39.560Z,53.20
2022-07-29T10:04:06.896Z,52.75
2022-07-29T10:06:34.556Z,53.38
2022-07-29T10:09:10.371Z,51.98
2022-07-29T10:11:49.087Z,52.31
2022-07-29T10:14:17.372Z,51.40
2022-07-29T10:16:44.736Z,53.00
2022-07-29T10:19:12.098Z,51.08
2022-07-29T10:21:40.855Z,50.47
2022-07-29T10:24:14.855Z,50.46
2022-07-29T10:26:43.392Z,50.92
2022-07-29T10:29:10.682Z,48.85
2022-07-29T10:31:59.173Z,49.79
2022-07-29T10:34:49.761Z,49.49
2022-07-29T10:37:35.365Z,49.57
2022-07-29T10:40:44.673Z,50.30
2022-07-29T10:43:28.316Z,49.44
2022-07-29T10:45:59.408Z,48.77
2022-07-29T10:48:27.434Z,48.57
2022-07-29T10:51:01.099Z,47.03
2022-07-29T10:53:52.294Z,47.65
2022-07-29T10:56:29.221Z,47.73
2022-07-29T10:59:21.788Z,47.19
2022-07-29T11:01:53.506Z,46.79
2022-07-29T11:04:47.153Z,47.79
2022-07-29T11:07:17.491Z,46.81
2022-07-29T11:09:46.654Z,46.10
2022-07-29T11:12:52.195Z,45.59
2022-07-29T11:15:22.672Z,45.19
2022-07-29T11:17:55.275Z,45.37
2022-07-29T11:20:45.867Z,45.57
2022-07-29T11:23:33.864Z,45.55
2022-07-29T11:26:14.446Z,44.98
2022-07-29T11:28:55.744Z,45.17
2022-07-29T11:31:56.063Z,45.88
2022-07-29T11:34:30.459Z,45.61
2022-07-29T11:37:13.717Z,45.42
2022-07-29T11:39:53.951Z,45.69
2022-07-29T11:42:32.131Z,45.74
2022-07-29T11:45:44.962Z,44.89
2022-07-29T11:48:29.785Z,44.21
2022-07-29T11:50:49.724Z,44.77
2022-07-29T11:53:17.319Z,44.39
2022-07-29T11:58:32.714Z,42.44
2022-07-29T12:01:04.572Z,43.23
2022-07-29T12:03:36.137Z,43.15
2022-07-29T12:06:13.623Z,42.21
2022-07-29T12:08:43.798Z,42.39
2022-07-29T12:11:22.723Z,41.91
2022-07-29T12:13:54.345Z,42.39
2022-07-29T12:16:25.785Z,42.22
2022-07-29T12:19:01.994Z,42.48
2022-07-29T12:21:56.990Z,41.71
2022-07-29T12:24:27.417Z,41.55
2022-07-29T12:26:58.387Z,41.78
2022-07-29T12:29:33.808Z,41.56
2022-07-29T12:32:05.441Z,41.29
2022-07-29T12:34:33.587Z,40.84
2022-07-29T12:37:02.158Z,40.64
2022-07-29T12:39:30.656Z,40.75
2022-07-29T12:42:03.854Z,40.72
2022-07-29T12:44:48.385Z,40.28
2022-07-29T12:47:16.227Z,40.71
2022-07-29T12:49:43.437Z,41.23
2022-07-29T12:52:30.120Z,41.70
2022-07-29T12:54:57.621Z,41.23
2022-07-29T12:57:25.082Z,40.81
2022-07-29T13:00:11.702Z,40.74
2022-07-29T13:02:39.938Z,40.50
2022-07-29T13:05:09.349Z,40.29
2022-07-29T13:07:54.454Z,41.31
2022-07-29T13:10:24.906Z,40.74
2022-07-29T13:13:12.299Z,40.17
2022-07-29T13:15:41.187Z,40.27
2022-07-29T13:18:31.688Z,40.47
2022-07-29T13:21:12.140Z,41.17
2022-07-29T13:23:39.631Z,41.03
2022-07-29T13:26:12.533Z,41.16
2022-07-29T13:28:39.836Z,41.31
2022-07-29T13:31:07.097Z,42.04
2022-07-29T13:33:34.286Z,40.85
2022-07-29T13:36:01.617Z,41.28
2022-07-29T13:38:31.199Z,40.65
2022-07-29T13:40:59.407Z,40.23
2022-07-29T13:43:26.617Z,40.07
2022-07-29T13:45:53.812Z,40.44
2022-07-29T13:48:21.647Z,40.49
2022-07-29T13:50:49.282Z,40.99
2022-07-29T13:53:17.998Z,40.08
2022-07-29T13:55:45.526Z,40.25
2022-07-29T13:58:12.757Z,40.47
2022-07-29T14:00:39.879Z,40.48
2022-07-29T14:03:08.059Z,41.21
2022-07-29T14:05:35.337Z,40.84
2022-07-29T14:08:02.474Z,40.44
2022-07-29T14:10:29.571Z,40.15
2022-07-29T14:12:56.672Z,39.85
2022-07-29T14:15:24.520Z,39.13
2022-07-29T14:17:51.635Z,38.25
2022-07-29T14:20:19.026Z,38.83
2022-07-29T14:22:46.172Z,38.85
2022-07-29T14:25:15.220Z,38.63
2022-07-29T14:27:44.361Z,38.29
2022-07-29T14:30:11.849Z,38.86
2022-07-29T14:32:38.980Z,37.77
2022-07-29T14:35:07.223Z,37.66
2022-07-29T14:37:40.584Z,37.89
2022-07-29T14:40:10.000Z,38.03
2022-07-29T14:42:38.157Z,37.77
2022-07-29T14:45:06.988Z,37.52
2022-07-29T14:47:35.316Z,37.89
2022-07-29T14:50:03.718Z,38.15
2022-07-29T14:52:30.877Z,37.65
2022-07-29T14:54:58.092Z,37.89
2022-07-29T14:57:25.441Z,38.03
2022-07-29T14:59:53.345Z,37.76
2022-07-29T15:02:20.472Z,38.31
2022-07-29T15:04:48.939Z,37.87
2022-07-29T15:07:16.910Z,37.39
2022-07-29T15:09:49.818Z,37.42
2022-07-29T15:12:17.513Z,38.38
2022-07-29T15:14:44.668Z,38.40
2022-07-29T15:17:12.050Z,38.27
2022-07-29T15:19:39.605Z,37.93
2022-07-29T15:22:12.258Z,38.59
2022-07-29T15:24:39.429Z,37.95
2022-07-29T15:27:06.726Z,38.35
2022-07-29T15:29:34.255Z,38.61
2022-07-29T15:32:02.102Z,38.70
2022-07-29T15:34:29.693Z,38.43
2022-07-29T15:36:57.610Z,38.31
2022-07-29T15:39:24.757Z,38.62
2022-07-29T15:41:52.075Z,38.90
2022-07-29T15:44:20.904Z,39.00
2022-07-29T15:47:04.239Z,39.00
2022-07-29T15:49:46.433Z,39.52
2022-07-29T15:52:24.721Z,39.44
2022-07-29T15:54:55.392Z,39.18
2022-07-29T15:57:23.072Z,39.18
2022-07-29T15:59:50.623Z,39.14
2022-07-29T16:02:17.936Z,38.94
2022-07-29T16:04:45.123Z,39.45
2022-07-29T16:07:12.482Z,39.38
2022-07-29T16:09:42.226Z,39.98
2022-07-29T16:12:14.630Z,40.15
2022-07-29T16:14:45.174Z,40.07
2022-07-29T16:17:14.977Z,39.81
2022-07-29T16:19:45.704Z,40.79
2022-07-29T16:22:12.915Z,40.97
2022-07-29T16:24:40.305Z,39.93
2022-07-29T16:27:07.998Z,40.39
2022-07-29T16:29:37.119Z,40.50
2022-07-29T16:32:05.849Z,40.87
2022-07-29T16:34:33.140Z,40.51
2022-07-29T16:37:00.906Z,40.97
2022-07-29T16:39:28.187Z,41.05
2022-07-29T16:41:59.877Z,40.87
2022-07-29T16:44:28.677Z,40.97
2022-07-29T16:46:58.917Z,40.87
2022-07-29T16:49:27.397Z,40.75
2022-07-29T16:51:54.945Z,40.21
2022-07-29T16:54:22.077Z,41.01
2022-07-29T16:56:49.311Z,40.43
2022-07-29T16:59:16.444Z,40.58
2022-07-29T17:01:43.844Z,40.15
2022-07-29T17:04:12.080Z,40.17
2022-07-29T17:06:41.140Z,40.13
2022-07-29T17:09:10.086Z,40.54
2022-07-29T17:11:54.049Z,40.70
2022-07-29T17:14:27.815Z,40.65
2022-07-29T17:17:00.627Z,40.43
2022-07-29T17:19:29.413Z,40.84
2022-07-29T17:22:04.664Z,40.48
2022-07-29T17:24:34.280Z,40.48
2022-07-29T17:27:01.843Z,40.57
2022-07-29T17:29:28.979Z,40.75
2022-07-29T17:31:57.792Z,40.96
2022-07-29T17:34:25.136Z,40.59
2022-07-29T17:36:52.417Z,40.80
2022-07-29T17:39:19.545Z,40.62
2022-07-29T17:41:46.959Z,41.22
2022-07-29T17:44:14.660Z,40.65
2022-07-29T17:46:41.868Z,40.95
2022-07-29T17:49:09.166Z,40.85
2022-07-29T17:51:36.475Z,41.01
2022-07-29T17:54:03.782Z,41.22
2022-07-29T17:56:30.917Z,41.21
2022-07-29T17:59:01.259Z,41.07
2022-07-29T18:01:28.853Z,41.59
2022-07-29T18:03:59.798Z,41.46
2022-07-29T18:06:27.387Z,41.91
2022-07-29T18:08:55.775Z,41.92
2022-07-29T18:11:23.514Z,42.61
2022-07-29T18:13:50.646Z,42.46
2022-07-29T18:16:18.630Z,42.45
2022-07-29T18:18:46.460Z,42.58
2022-07-29T18:21:13.890Z,44.25
2022-07-29T18:23:41.820Z,44.99
2022-07-29T18:26:09.978Z,44.38
2022-07-29T18:28:37.251Z,44.29
2022-07-29T18:31:07.156Z,44.17
2022-07-29T18:33:34.254Z,44.39
2022-07-29T18:36:10.687Z,44.44
2022-07-29T18:38:41.012Z,45.21
2022-07-29T18:41:08.475Z,45.21
2022-07-29T18:43:35.898Z,44.75
2022-07-29T18:46:05.435Z,44.95
2022-07-29T18:48:34.147Z,45.54
2022-07-29T18:51:01.555Z,46.03
2022-07-29T18:53:28.736Z,45.96
2022-07-29T18:56:00.309Z,46.07
2022-07-29T18:58:27.741Z,46.13
2022-07-29T19:00:54.939Z,45.88
2022-07-29T19:03:22.047Z,45.57
2022-07-29T19:05:49.597Z,45.59
2022-07-29T19:08:16.903Z,46.11
2022-07-29T19:10:44.250Z,45.95
2022-07-29T19:13:13.386Z,45.81
2022-07-29T19:15:40.787Z,47.29
2022-07-29T19:18:07.924Z,46.64
2022-07-29T19:20:35.075Z,47.34
2022-07-29T19:23:02.373Z,48.29
2022-07-29T19:25:29.417Z,47.22
2022-07-29T19:27:57.224Z,49.67
2022-07-29T19:30:24.383Z,48.81
2022-07-29T19:32:51.556Z,48.86
2022-07-29T19:35:28.479Z,50.14
2022-07-29T19:37:56.872Z,50.80
2022-07-29T19:40:24.026Z,50.70
2022-07-29T19:42:52.929Z,49.84
2022-07-29T19:45:21.688Z,52.20
2022-07-29T19:47:49.605Z,50.47
2022-07-29T19:50:17.664Z,51.78
2022-07-29T19:52:47.222Z,52.43
2022-07-29T19:55:15.150Z,51.31
2022-07-29T19:57:42.665Z,51.63
2022-07-29T20:00:11.831Z,53.89
2022-07-29T20:02:40.370Z,52.33
2022-07-29T20:05:08.865Z,52.84
2022-07-29T20:07:36.876Z,51.82
2022-07-29T20:10:05.405Z,53.28
2022-07-29T20:12:32.973Z,53.68
2022-07-29T20:15:00.153Z,53.67
2022-07-29T20:17:28.722Z,53.42
2022-07-29T20:19:57.138Z,52.71
2022-07-29T20:22:24.232Z,54.61
2022-07-29T20:24:51.481Z,54.75
2022-07-29T20:27:19.088Z,55.71
2022-07-29T20:29:46.239Z,56.20
2022-07-29T20:32:13.566Z,56.83
2022-07-29T20:34:41.585Z,58.02
2022-07-29T20:37:14.803Z,59.01
2022-07-29T20:39:47.927Z,58.71
2022-07-29T20:42:16.392Z,59.32
2022-07-29T20:44:43.790Z,60.01
2022-07-29T20:47:11.026Z,60.22
2022-07-29T20:49:38.178Z,60.62
2022-07-29T20:52:05.510Z,61.00
2022-07-29T20:54:32.743Z,60.80
2022-07-29T20:57:00.118Z,60.72
2022-07-29T20:59:27.492Z,60.19
2022-07-29T21:01:55.743Z,60.42
2022-07-29T21:04:22.884Z,60.51
2022-07-29T21:06:58.667Z,60.81
2022-07-29T21:09:26.214Z,61.64
2022-07-29T21:11:53.349Z,62.97
2022-07-29T21:14:40.897Z,63.15
2022-07-29T21:17:08.246Z,62.80
2022-07-29T21:19:35.476Z,63.28
2022-07-29T21:22:03.260Z,62.82
2022-07-29T21:24:30.400Z,62.45
2022-07-29T21:27:21.696Z,62.27
2022-07-29T21:29:49.543Z,62.86
2022-07-29T21:32:29.656Z,63.26
2022-07-29T21:34:58.340Z,63.99
2022-07-29T21:37:25.649Z,64.44
2022-07-29T21:39:52.773Z,64.45
2022-07-29T21:42:19.909Z,65.81
2022-07-29T21:44:47.030Z,66.28
2022-07-29T21:47:14.177Z,65.97
2022-07-29T21:49:41.332Z,64.99
2022-07-29T21:52:08.962Z,64.39
2022-07-29T21:54:36.276Z,64.07
2022-07-29T21:57:04.044Z,64.34
2022-07-29T21:59:31.995Z,64.48
2022-07-29T22:02:01.164Z,64.69
2022-07-29T22:04:29.591Z,64.48
2022-07-29T22:06:58.512Z,65.70
2022-07-29T22:09:26.736Z,65.76
2022-07-29T22:11:55.071Z,65.58
2022-07-29T22:14:22.636Z,66.37
2022-07-29T22:16:49.923Z,65.98
2022-07-29T22:19:17.225Z,65.75
2022-07-29T22:21:44.819Z,65.92
2022-07-29T22:24:12.015Z,66.66
2022-07-29T22:26:39.100Z,67.48
2022-07-29T22:29:06.722Z,67.08
2022-07-29T22:31:34.249Z,69.21
2022-07-29T22:34:01.358Z,69.40
2022-07-29T22:36:28.498Z,69.20
2022-07-29T22:38:55.621Z,70.67
2022-07-29T22:41:22.813Z,70.85
2022-07-29T22:43:50.159Z,71.26
2022-07-29T22:46:17.420Z,72.16
2022-07-29T22:48:44.729Z,71.03
2022-07-29T22:51:11.859Z,70.84
2022-07-29T22:53:38.950Z,70.51
2022-07-29T22:56:06.262Z,70.33
2022-07-29T22:58:33.410Z,69.68
2022-07-29T23:01:00.631Z,70.08
2022-07-29T23:03:27.839Z,72.47
2022-07-29T23:05:55.110Z,73.52
2022-07-29T23:08:22.307Z,74.24
2022-07-29T23:10:49.488Z,73.58
2022-07-29T23:13:16.643Z,72.21
2022-07-29T23:15:43.727Z,72.66
2022-07-29T23:18:10.889Z,71.43
2022-07-29T23:20:38.124Z,72.88
2022-07-29T23:23:05.647Z,74.82
2022-07-29T23:25:32.891Z,76.27
2022-07-29T23:28:00.114Z,75.31
2022-07-29T23:30:27.558Z,75.13
2022-07-29T23:32:55.704Z,74.95
2022-07-29T23:35:23.214Z,78.38
2022-07-29T23:37:50.317Z,78.41
2022-07-29T23:40:17.427Z,77.74
2022-07-29T23:42:44.825Z,76.62
2022-07-29T23:45:13.397Z,75.79
2022-07-29T23:47:41.147Z,74.52
2022-07-29T23:50:09.619Z,74.74
2022-07-29T23:52:36.681Z,74.77
2022-07-29T23:55:36.430Z,74.54
2022-07-29T23:57:51.736Z,74.77
